Time;durP1;ratioP1;P1;durP2;ratioP2;P2;SDS_P1;SDS_P2;PMS_P1;PMS_P2;Temp;Humidity;BMP_temperature;BMP_pressure;BME280_temperature;BME280_humidity;BME280_pressure;Samples;Min_cycle;Max_cycle;Signal;HPM_P1;HPM_P2
2023/05/13 05:02:05;;;;;;;4.57;2.53;;;11.30;99.90;;;;;;5561201;23;20252;-69
2023/05/13 05:04:31;;;;;;;5.25;2.53;;;11.30;99.90;;;;;;4942801;29;20040;-70
2023/05/13 05:06:57;;;;;;;3.67;2.50;;;11.30;99.90;;;;;;4936342;29;20024;-69
2023/05/13 05:09:23;;;;;;;6.43;2.88;;;11.30;99.90;;;;;;4902725;29;20104;-69
2023/05/13 05:11:50;;;;;;;7.87;3.07;;;11.30;99.90;;;;;;4920140;29;20279;-68
2023/05/13 05:14:17;;;;;;;3.70;2.40;;;11.30;99.90;;;;;;4911078;29;20024;-69
2023/05/13 05:16:43;;;;;;;3.97;2.38;;;11.40;99.90;;;;;;4910686;29;20364;-69
2023/05/13 05:19:09;;;;;;;3.38;2.38;;;11.50;99.90;;;;;;4917915;29;20328;-69
2023/05/13 05:21:37;;;;;;;4.82;2.55;;;11.50;99.90;;;;;;4918359;29;20062;-69
2023/05/13 05:24:04;;;;;;;4.95;2.50;;;11.50;99.90;;;;;;4915180;29;20028;-68
2023/05/13 05:26:30;;;;;;;3.95;2.30;;;11.50;99.90;;;;;;4910756;29;20043;-69
2023/05/13 05:28:55;;;;;;;5.60;2.47;;;11.60;99.90;;;;;;4910120;29;20036;-69
2023/05/13 05:31:21;;;;;;;5.30;2.60;;;11.60;99.90;;;;;;4910513;29;20028;-69
2023/05/13 05:33:47;;;;;;;3.33;2.38;;;11.70;99.90;;;;;;4927571;29;20039;-69
2023/05/13 05:36:12;;;;;;;3.70;2.40;;;11.60;99.90;;;;;;4909805;29;20137;-70
2023/05/13 05:38:38;;;;;;;3.50;2.63;;;11.60;99.90;;;;;;4927065;29;20043;-70
2023/05/13 05:41:05;;;;;;;7.22;2.72;;;11.70;99.90;;;;;;4909906;29;20022;-71
2023/05/13 05:43:31;;;;;;;4.75;2.30;;;11.70;99.90;;;;;;4910313;29;20028;-70
2023/05/13 05:45:57;;;;;;;5.00;2.50;;;11.70;99.90;;;;;;4926275;29;20028;-70
2023/05/13 05:48:24;;;;;;;6.72;3.03;;;11.70;99.90;;;;;;4910292;29;20031;-70
2023/05/13 05:50:49;;;;;;;3.33;2.40;;;11.70;99.90;;;;;;4926767;29;20067;-69
2023/05/13 05:53:23;;;;;;;3.80;2.50;;;11.70;99.90;;;;;;4910565;29;20255;-70
2023/05/13 05:55:49;;;;;;;3.72;2.67;;;11.70;99.90;;;;;;4894492;29;20148;-70
2023/05/13 05:58:15;;;;;;;3.70;2.50;;;11.60;99.90;;;;;;4917934;29;20039;-69
2023/05/13 06:00:41;;;;;;;4.72;2.40;;;11.60;99.90;;;;;;4914029;29;20036;-69
2023/05/13 06:03:07;;;;;;;3.17;2.40;;;11.60;99.90;;;;;;4925955;29;20099;-69
2023/05/13 06:05:34;;;;;;;3.40;2.38;;;11.50;99.90;;;;;;4909971;29;20143;-69
2023/05/13 06:07:59;;;;;;;3.78;2.42;;;11.60;99.90;;;;;;4909212;29;20032;-70
2023/05/13 06:10:25;;;;;;;5.45;3.05;;;11.60;99.90;;;;;;4909723;29;20035;-70
2023/05/13 06:12:52;;;;;;;6.75;3.00;;;11.60;99.90;;;;;;4909615;29;20028;-70
2023/05/13 06:15:18;;;;;;;3.65;2.60;;;11.70;99.90;;;;;;4926641;29;20028;-70
2023/05/13 06:17:43;;;;;;;4.22;2.63;;;11.80;99.90;;;;;;4926461;29;20080;-71
2023/05/13 06:20:09;;;;;;;4.55;2.60;;;11.70;99.90;;;;;;4909330;29;20206;-70
2023/05/13 06:22:35;;;;;;;4.95;2.70;;;11.80;99.90;;;;;;4926784;29;20079;-70
2023/05/13 06:25:01;;;;;;;3.75;2.55;;;11.80;99.90;;;;;;4926400;29;20301;-69
2023/05/13 06:27:27;;;;;;;6.03;2.80;;;11.90;99.90;;;;;;4909554;29;20039;-69
2023/05/13 06:29:53;;;;;;;5.50;2.92;;;11.90;99.90;;;;;;4925861;29;20032;-69
2023/05/13 06:32:19;;;;;;;7.22;3.13;;;11.90;99.90;;;;;;4909499;29;20036;-70
2023/05/13 06:34:45;;;;;;;4.32;2.83;;;12.00;99.90;;;;;;4926562;29;20436;-70
2023/05/13 06:37:14;;;;;;;6.95;2.88;;;12.00;99.90;;;;;;4909024;29;20028;-70
2023/05/13 06:39:40;;;;;;;4.03;2.67;;;12.00;99.90;;;;;;4909588;29;20032;-70
2023/05/13 06:42:06;;;;;;;5.10;2.53;;;12.10;99.90;;;;;;4909160;29;20076;-69
2023/05/13 06:44:38;;;;;;;6.18;3.08;;;12.10;99.90;;;;;;4909849;29;20051;-69
2023/05/13 06:47:05;;;;;;;4.68;2.90;;;12.10;99.90;;;;;;4925982;29;20028;-71
2023/05/13 06:49:34;;;;;;;5.15;2.88;;;12.20;99.90;;;;;;4926095;29;20055;-70
2023/05/13 06:52:00;;;;;;;5.30;2.75;;;12.20;99.90;;;;;;4925807;29;20051;-69
2023/05/13 06:54:26;;;;;;;5.22;3.25;;;12.30;99.90;;;;;;4926199;29;20040;-69
2023/05/13 06:56:53;;;;;;;5.20;2.90;;;12.30;99.90;;;;;;4926296;29;20171;-69
2023/05/13 06:59:20;;;;;;;5.32;3.00;;;12.40;99.90;;;;;;4925747;29;20020;-70
2023/05/13 07:01:46;;;;;;;5.57;2.90;;;12.50;99.90;;;;;;4905832;29;20163;-69
2023/05/13 07:04:11;;;;;;;4.47;3.22;;;12.50;99.90;;;;;;4906867;29;20044;-69
2023/05/13 07:06:37;;;;;;;6.07;3.42;;;12.60;99.90;;;;;;4907187;29;20028;-70
2023/05/13 07:09:03;;;;;;;3.88;2.75;;;12.70;99.90;;;;;;4906336;29;20145;-69
2023/05/13 07:11:29;;;;;;;4.20;2.60;;;12.80;99.90;;;;;;4907423;29;20044;-69
2023/05/13 07:13:54;;;;;;;5.95;3.00;;;12.80;99.90;;;;;;4907093;29;20041;-69
2023/05/13 07:16:20;;;;;;;5.50;2.95;;;12.90;99.90;;;;;;4906929;29;20322;-69
2023/05/13 07:18:46;;;;;;;4.55;2.42;;;13.00;99.90;;;;;;4906349;29;20302;-70
2023/05/13 07:21:13;;;;;;;4.90;2.90;;;13.20;99.90;;;;;;4906827;29;20060;-69
2023/05/13 07:23:39;;;;;;;4.13;2.40;;;13.30;99.90;;;;;;4907109;29;20098;-69
2023/05/13 07:26:05;;;;;;;3.85;2.30;;;13.30;99.90;;;;;;4906658;29;20056;-70
2023/05/13 07:28:30;;;;;;;5.22;2.90;;;13.40;99.90;;;;;;4907001;29;20051;-69
2023/05/13 07:30:57;;;;;;;5.07;2.78;;;13.40;99.90;;;;;;4906814;29;20281;-69
2023/05/13 07:33:22;;;;;;;5.43;2.42;;;13.50;99.90;;;;;;4906589;29;20041;-70
2023/05/13 07:35:48;;;;;;;6.03;2.63;;;13.50;99.90;;;;;;4907265;29;20064;-70
2023/05/13 07:38:14;;;;;;;5.78;2.80;;;13.60;99.90;;;;;;4906240;29;20047;-69
2023/05/13 07:40:40;;;;;;;5.28;2.83;;;13.70;99.90;;;;;;4907192;29;20345;-70
2023/05/13 07:43:06;;;;;;;6.60;2.95;;;13.70;99.90;;;;;;4908621;29;20091;-69
2023/05/13 07:45:31;;;;;;;4.50;2.40;;;13.70;99.90;;;;;;4910410;29;20092;-69
2023/05/13 07:47:57;;;;;;;5.10;2.75;;;13.90;99.90;;;;;;4910439;29;20370;-69
2023/05/13 07:50:23;;;;;;;4.03;2.83;;;14.00;99.90;;;;;;4910462;29;20037;-69
2023/05/13 07:52:50;;;;;;;6.10;3.45;;;14.00;99.90;;;;;;4910119;29;20080;-69
2023/05/13 07:55:16;;;;;;;5.90;3.10;;;14.20;99.90;;;;;;4909704;29;20045;-70
2023/05/13 07:57:42;;;;;;;4.68;2.70;;;14.50;99.90;;;;;;4903845;29;20092;-72
2023/05/13 08:00:09;;;;;;;3.58;2.22;;;14.60;99.90;;;;;;4920951;29;20036;-69
2023/05/13 08:02:42;;;;;;;4.70;2.42;;;14.70;99.90;;;;;;4920730;29;20047;-69
2023/05/13 08:05:09;;;;;;;4.00;2.60;;;14.60;99.90;;;;;;4928021;29;20032;-69
2023/05/13 08:07:35;;;;;;;3.53;2.40;;;14.70;99.90;;;;;;4928843;29;20198;-69
2023/05/13 08:10:01;;;;;;;4.45;2.88;;;14.60;99.90;;;;;;4928375;29;20043;-69
2023/05/13 08:12:26;;;;;;;5.13;2.75;;;14.60;99.90;;;;;;4929091;29;20032;-69
2023/05/13 08:14:52;;;;;;;6.28;3.13;;;14.70;99.90;;;;;;4928847;29;20059;-69
2023/05/13 08:17:18;;;;;;;3.95;2.75;;;14.80;99.90;;;;;;4928457;29;20032;-69
2023/05/13 08:19:44;;;;;;;5.50;2.80;;;14.90;99.90;;;;;;4928603;29;20028;-69
2023/05/13 08:22:10;;;;;;;3.70;2.60;;;14.90;99.90;;;;;;4928175;29;20062;-70
2023/05/13 08:24:36;;;;;;;5.28;2.38;;;14.90;99.90;;;;;;4928246;29;20302;-68
2023/05/13 08:27:02;;;;;;;4.22;2.67;;;14.80;99.90;;;;;;4928291;29;20344;-68
2023/05/13 08:29:28;;;;;;;3.72;2.47;;;15.00;99.90;;;;;;4928557;29;20028;-68
2023/05/13 08:31:54;;;;;;;5.72;2.70;;;15.00;99.90;;;;;;4928242;29;20027;-68
2023/05/13 08:34:20;;;;;;;3.95;2.45;;;15.00;99.90;;;;;;4927896;29;20230;-68
2023/05/13 08:36:46;;;;;;;4.85;2.85;;;15.00;99.90;;;;;;4928399;29;20027;-68
2023/05/13 08:39:12;;;;;;;4.13;2.70;;;14.90;99.90;;;;;;4927803;29;20246;-68
2023/05/13 08:41:39;;;;;;;3.55;2.55;;;14.90;99.90;;;;;;4928289;29;20036;-69
2023/05/13 08:44:06;;;;;;;4.55;2.92;;;14.90;99.90;;;;;;4928065;29;20040;-69
2023/05/13 08:46:35;;;;;;;4.25;2.67;;;14.90;99.90;;;;;;4928178;29;20313;-68
2023/05/13 08:49:01;;;;;;;5.13;2.70;;;14.80;99.90;;;;;;4927848;29;20108;-68
2023/05/13 08:51:27;;;;;;;3.70;2.65;;;14.70;99.90;;;;;;4928197;29;20317;-68
2023/05/13 08:53:54;;;;;;;4.80;2.63;;;14.70;99.90;;;;;;4927838;29;20036;-68
2023/05/13 08:56:27;;;;;;;5.57;2.57;;;14.80;99.90;;;;;;4925889;29;20066;-69
2023/05/13 08:58:53;;;;;;;4.47;3.00;;;14.70;99.90;;;;;;4922889;29;20046;-68
2023/05/13 09:01:20;;;;;;;4.85;2.70;;;14.60;99.90;;;;;;4926885;29;20054;-73
2023/05/13 09:03:57;;;;;;;3.35;2.30;;;14.70;99.90;;;;;;4911070;29;20079;-72
2023/05/13 09:06:23;;;;;;;4.07;2.85;;;14.80;99.90;;;;;;4927353;29;20035;-74
2023/05/13 09:08:48;;;;;;;5.47;3.00;;;14.70;99.90;;;;;;4927823;29;20028;-75
2023/05/13 09:11:15;;;;;;;4.88;2.95;;;14.70;99.90;;;;;;4926905;29;20337;-73
2023/05/13 09:13:43;;;;;;;3.72;2.50;;;14.80;99.90;;;;;;4927722;29;20032;-74
2023/05/13 09:16:10;;;;;;;4.20;2.70;;;14.80;99.90;;;;;;4927388;29;20040;-71
2023/05/13 09:18:37;;;;;;;3.53;2.30;;;14.70;99.90;;;;;;4927755;29;20048;-71
2023/05/13 09:21:22;;;;;;;5.60;2.58;;;14.80;99.90;;;;;;4910942;29;20028;-74
2023/05/13 09:23:48;;;;;;;4.53;2.55;;;14.90;99.90;;;;;;4927590;29;20028;-74
2023/05/13 09:26:27;;;;;;;4.68;3.03;;;14.90;99.90;;;;;;4926923;29;20067;-74
2023/05/13 09:29:16;;;;;;;4.45;2.50;;;15.00;99.90;;;;;;4927180;29;20322;-76
2023/05/13 09:31:43;;;;;;;4.47;2.70;;;15.10;99.90;;;;;;4927111;29;20028;-73
2023/05/13 09:34:09;;;;;;;4.28;2.60;;;15.30;99.90;;;;;;4926755;29;20028;-74
2023/05/13 09:36:34;;;;;;;5.45;2.60;;;15.40;99.90;;;;;;4927443;29;20062;-76
2023/05/13 09:39:02;;;;;;;4.05;2.28;;;15.50;99.90;;;;;;4927295;29;20040;-72
2023/05/13 09:41:30;;;;;;;4.53;2.60;;;15.40;99.90;;;;;;4926574;29;20430;-72
2023/05/13 09:43:57;;;;;;;5.63;2.57;;;15.50;99.90;;;;;;4909420;29;20488;-74
2023/05/13 09:46:24;;;;;;;3.65;2.60;;;15.60;99.90;;;;;;4921738;29;20042;-72
2023/05/13 09:48:54;;;;;;;4.60;2.63;;;15.60;99.90;;;;;;4927093;29;20050;-74
2023/05/13 09:51:29;;;;;;;3.13;2.22;;;15.80;99.90;;;;;;4926801;29;20035;-74
2023/05/13 09:54:05;;;;;;;4.53;2.20;;;16.00;99.90;;;;;;4926945;29;20044;-74
2023/05/13 09:56:33;;;;;;;4.15;2.45;;;16.20;99.90;;;;;;4923702;29;20040;-74
2023/05/13 09:59:00;;;;;;;5.13;2.30;;;16.30;99.90;;;;;;4917116;29;20024;-74
2023/05/13 10:01:30;;;;;;;3.92;2.00;;;16.40;99.90;;;;;;4925752;29;20107;-74
2023/05/13 10:03:58;;;;;;;3.78;2.45;;;16.70;99.90;;;;;;4926579;29;20202;-76
2023/05/13 10:06:27;;;;;;;4.35;2.30;;;16.80;99.90;;;;;;4925531;29;20032;-74
2023/05/13 10:08:55;;;;;;;5.82;2.75;;;16.90;99.90;;;;;;4926566;29;20032;-74
2023/05/13 10:11:22;;;;;;;;;;;16.90;99.90;;;;;;4894461;29;20115;-74
2023/05/13 10:14:07;;;;;;;3.80;2.33;;;16.80;99.90;;;;;;4926675;29;19963;-74
2023/05/13 10:16:33;;;;;;;2.72;1.80;;;16.90;99.90;;;;;;4926377;29;20036;-74
2023/05/13 10:18:59;;;;;;;2.92;1.65;;;17.00;99.60;;;;;;4926631;29;20028;-75
2023/05/13 10:21:26;;;;;;;3.88;2.13;;;17.10;99.00;;;;;;4909282;29;20043;-74
2023/05/13 10:23:52;;;;;;;4.32;1.88;;;17.10;99.20;;;;;;4926823;29;20086;-73
2023/05/13 10:26:19;;;;;;;3.05;1.60;;;17.20;99.00;;;;;;4925731;29;20310;-73
2023/05/13 10:28:46;;;;;;;3.08;1.85;;;17.20;98.80;;;;;;4919958;29;20020;-72
2023/05/13 10:31:12;;;;;;;3.47;1.70;;;16.80;99.20;;;;;;4920690;29;20044;-72
2023/05/13 10:33:39;;;;;;;2.58;1.70;;;16.70;99.40;;;;;;4926604;29;20028;-72
2023/05/13 10:36:38;;;;;;;3.53;1.70;;;16.50;99.60;;;;;;4926420;29;20040;-72
2023/05/13 10:39:17;;;;;;;2.80;1.63;;;16.60;99.90;;;;;;4926659;29;20051;-71
2023/05/13 10:42:20;;;;;;;4.80;2.40;;;16.60;99.90;;;;;;4921010;29;20032;-72
2023/05/13 10:44:50;;;;;;;4.15;2.75;;;16.50;99.90;;;;;;4924106;29;20032;-72
2023/05/13 10:47:16;;;;;;;6.10;2.92;;;16.20;99.90;;;;;;4925673;29;20039;-72
2023/05/13 10:49:52;;;;;;;4.82;2.88;;;16.10;99.90;;;;;;4926245;29;20040;-72
2023/05/13 10:52:18;;;;;;;5.40;2.88;;;15.90;99.90;;;;;;4905166;29;20112;-72
2023/05/13 10:55:02;;;;;;;5.82;2.92;;;15.70;99.90;;;;;;4921453;29;20098;-77
2023/05/13 10:57:35;;;;;;;5.32;3.00;;;15.60;99.90;;;;;;4915526;29;20089;-72
2023/05/13 11:00:13;;;;;;;4.93;2.97;;;15.60;99.90;;;;;;4924515;29;20083;-72
2023/05/13 11:02:38;;;;;;;3.90;2.80;;;15.60;99.90;;;;;;4909261;29;20211;-73
2023/05/13 11:05:04;;;;;;;8.15;3.05;;;15.90;99.90;;;;;;4926031;29;20140;-72
2023/05/13 11:07:30;;;;;;;5.28;3.28;;;16.10;99.90;;;;;;4925888;29;20107;-73
2023/05/13 11:09:56;;;;;;;5.20;3.15;;;16.50;99.90;;;;;;4925795;29;20036;-74
2023/05/13 11:12:21;;;;;;;4.55;2.50;;;16.90;99.90;;;;;;4924702;29;20293;-74
2023/05/13 11:14:47;;;;;;;3.97;2.40;;;17.10;99.80;;;;;;4925736;29;20028;-75
2023/05/13 11:17:17;;;;;;;4.80;2.80;;;17.30;99.60;;;;;;4928221;29;20191;-75
2023/05/13 11:19:49;;;;;;;6.43;2.97;;;17.60;98.90;;;;;;4929845;29;20272;-74
2023/05/13 11:22:19;;;;;;;4.00;2.40;;;18.00;98.50;;;;;;4929512;29;20031;-74
2023/05/13 11:24:46;;;;;;;5.40;2.88;;;18.00;97.80;;;;;;4929700;29;20044;-72
2023/05/13 11:27:12;;;;;;;4.63;2.60;;;17.80;97.80;;;;;;4927120;29;20084;-70
2023/05/13 11:29:48;;;;;;;5.65;2.28;;;17.50;98.00;;;;;;4929491;29;20107;-73
2023/05/13 11:32:14;;;;;;;4.07;2.38;;;17.60;98.30;;;;;;4929132;29;20055;-73
2023/05/13 11:34:49;;;;;;;5.47;2.40;;;17.50;98.30;;;;;;4929584;29;20179;-72
2023/05/13 11:37:16;;;;;;;5.15;3.03;;;17.40;98.30;;;;;;4929079;29;20032;-73
2023/05/13 11:39:42;;;;;;;4.07;2.67;;;17.30;99.10;;;;;;4912565;29;20043;-74
2023/05/13 11:42:09;;;;;;;4.15;2.50;;;17.20;98.90;;;;;;4912733;29;20321;-72
2023/05/13 11:44:43;;;;;;;4.07;2.83;;;17.00;99.20;;;;;;4928734;29;20032;-73
2023/05/13 11:47:08;;;;;;;4.47;2.47;;;16.90;99.20;;;;;;4929334;29;20039;-75
2023/05/13 11:49:41;;;;;;;9.13;2.78;;;16.90;99.40;;;;;;4928416;29;20330;-72
2023/05/13 11:52:17;;;;;;;5.03;2.58;;;16.90;99.50;;;;;;4929153;29;20040;-72
2023/05/13 11:54:49;;;;;;;4.53;2.72;;;17.00;99.70;;;;;;4929404;29;20032;-73
2023/05/13 11:57:31;;;;;;;4.00;2.30;;;16.90;99.50;;;;;;4928758;29;20079;-72
2023/05/13 12:00:00;;;;;;;3.40;2.35;;;16.80;99.50;;;;;;4929233;29;20028;-70
2023/05/13 12:02:32;;;;;;;5.32;2.13;;;17.00;99.30;;;;;;4908030;29;20233;-70
2023/05/13 12:05:06;;;;;;;5.85;2.45;;;17.00;99.30;;;;;;4909871;29;20036;-70
2023/05/13 12:07:33;;;;;;;4.07;2.20;;;17.10;98.90;;;;;;4909523;29;20032;-70
2023/05/13 12:10:00;;;;;;;2.92;2.17;;;17.20;98.80;;;;;;4901389;29;20040;-70
2023/05/13 12:12:28;;;;;;;4.93;2.10;;;17.10;99.00;;;;;;4909100;29;20255;-70
2023/05/13 12:14:58;;;;;;;4.22;2.50;;;17.00;98.80;;;;;;4910062;29;20083;-70
2023/05/13 12:17:24;;;;;;;3.15;2.13;;;16.80;99.30;;;;;;4909399;29;20033;-70
2023/05/13 12:20:13;;;;;;;2.72;2.00;;;16.70;99.30;;;;;;4893248;29;20060;-70
2023/05/13 12:22:42;;;;;;;3.33;2.38;;;16.50;99.30;;;;;;4909801;29;20025;-69
2023/05/13 12:25:46;;;;;;;3.60;2.20;;;16.30;99.80;;;;;;4909761;29;20349;-69
2023/05/13 12:28:20;;;;;;;2.65;2.08;;;16.30;99.70;;;;;;4897129;29;20043;-69
2023/05/13 12:30:49;;;;;;;4.80;2.30;;;16.20;99.90;;;;;;4909526;29;20096;-69
2023/05/13 12:33:16;;;;;;;3.88;2.60;;;16.30;99.90;;;;;;4909524;29;20040;-70
2023/05/13 12:35:43;;;;;;;4.10;2.38;;;16.40;99.70;;;;;;4909241;29;20330;-71
2023/05/13 12:38:15;;;;;;;7.35;2.50;;;16.50;99.90;;;;;;4908496;29;20029;-71
2023/05/13 12:40:41;;;;;;;4.93;2.40;;;16.90;99.40;;;;;;4909568;29;20040;-72
2023/05/13 12:43:09;;;;;;;4.00;2.25;;;17.30;98.80;;;;;;4904070;29;20068;-71
2023/05/13 12:45:38;;;;;;;3.25;2.15;;;17.60;98.80;;;;;;4900796;29;20051;-71
2023/05/13 12:48:04;;;;;;;3.53;2.50;;;18.10;97.50;;;;;;4902887;29;20041;-71
2023/05/13 12:50:29;;;;;;;3.22;2.10;;;18.00;97.10;;;;;;4908675;29;20028;-71
2023/05/13 12:52:56;;;;;;;3.13;2.10;;;18.00;97.30;;;;;;4909492;29;20051;-71
2023/05/13 12:55:22;;;;;;;3.20;2.10;;;18.30;96.80;;;;;;4903216;29;20123;-69
2023/05/13 12:57:59;;;;;;;5.28;2.10;;;18.70;96.20;;;;;;4904046;29;20033;-75
2023/05/13 13:00:25;;;;;;;3.30;2.15;;;19.60;95.00;;;;;;4900512;29;20088;-73
2023/05/13 13:02:52;;;;;;;2.60;1.80;;;20.40;94.10;;;;;;4910668;29;20322;-71
2023/05/13 13:05:23;;;;;;;2.83;1.73;;;21.70;92.60;;;;;;4927304;29;20028;-72
2023/05/13 13:07:50;;;;;;;2.53;1.80;;;23.40;88.80;;;;;;4927963;29;20044;-72
2023/05/13 13:10:16;;;;;;;2.40;1.58;;;24.10;86.40;;;;;;4900795;29;20032;-72
2023/05/13 13:12:42;;;;;;;4.10;1.70;;;23.90;84.70;;;;;;4914678;29;20302;-72
2023/05/13 13:15:09;;;;;;;3.55;1.85;;;24.00;84.20;;;;;;4927632;29;20032;-72
2023/05/13 13:17:35;;;;;;;3.38;2.08;;;23.60;84.00;;;;;;4927180;29;20043;-72
2023/05/13 13:20:03;;;;;;;3.58;1.92;;;22.80;85.60;;;;;;4927316;29;20039;-69
2023/05/13 13:22:29;;;;;;;3.70;1.80;;;21.90;87.30;;;;;;4927163;29;20240;-72
2023/05/13 13:24:55;;;;;;;3.10;2.15;;;21.00;89.70;;;;;;4927679;29;20051;-72
2023/05/13 13:27:21;;;;;;;3.05;1.67;;;20.20;90.80;;;;;;4927204;29;20032;-72
2023/05/13 13:29:46;;;;;;;4.43;1.92;;;19.80;92.00;;;;;;4927568;29;20255;-72
2023/05/13 13:32:12;;;;;;;3.45;2.15;;;19.60;92.00;;;;;;4927584;29;20066;-72
2023/05/13 13:34:38;;;;;;;3.20;2.10;;;20.20;92.20;;;;;;4926902;29;20165;-70
2023/05/13 13:37:04;;;;;;;3.88;1.70;;;21.60;90.80;;;;;;4910724;29;20107;-70
2023/05/13 13:39:30;;;;;;;5.90;1.80;;;22.90;88.20;;;;;;4925886;29;20028;-73
2023/05/13 13:41:56;;;;;;;2.50;1.70;;;23.60;85.20;;;;;;4927074;29;20099;-71
2023/05/13 13:44:22;;;;;;;2.60;1.50;;;23.40;83.80;;;;;;4926659;29;20063;-70
2023/05/13 13:46:47;;;;;;;2.25;1.42;;;22.90;85.00;;;;;;4927341;29;20225;-71
2023/05/13 13:49:13;;;;;;;3.05;1.48;;;22.20;87.00;;;;;;4926902;29;20188;-71
2023/05/13 13:51:39;;;;;;;4.22;1.80;;;21.90;88.10;;;;;;4927115;29;20385;-73
2023/05/13 13:54:07;;;;;;;4.13;1.70;;;21.60;87.00;;;;;;4927502;29;20032;-72
2023/05/13 13:56:36;;;;;;;;;;;21.20;87.00;;;;;;4918283;29;20035;-72
2023/05/13 13:59:02;;;;;;;4.30;1.70;;;21.00;88.40;;;;;;4923355;29;19907;-70
2023/05/13 14:01:28;;;;;;;2.40;1.60;;;21.00;88.70;;;;;;4909604;29;20046;-72
2023/05/13 14:04:09;;;;;;;2.88;1.85;;;20.70;88.80;;;;;;4926862;29;20078;-73
2023/05/13 14:06:35;;;;;;;3.25;1.95;;;20.20;90.00;;;;;;4926238;29;20304;-72
2023/05/13 14:09:02;;;;;;;2.90;1.88;;;19.50;90.80;;;;;;4926803;29;20024;-73
2023/05/13 14:11:28;;;;;;;4.60;1.77;;;19.30;91.80;;;;;;4926396;29;20024;-72
2023/05/13 14:13:53;;;;;;;2.78;1.83;;;19.20;92.00;;;;;;4926621;29;20233;-73
2023/05/13 14:16:19;;;;;;;2.78;2.08;;;19.20;92.40;;;;;;4926831;29;20330;-73
2023/05/13 14:18:45;;;;;;;4.18;2.00;;;19.20;92.00;;;;;;4926391;29;20070;-71
2023/05/13 14:21:11;;;;;;;4.60;1.98;;;19.10;92.10;;;;;;4926813;29;20028;-73
2023/05/13 14:23:37;;;;;;;3.58;1.80;;;19.10;92.30;;;;;;4926397;29;20040;-71
2023/05/13 14:26:03;;;;;;;3.25;1.92;;;19.00;92.50;;;;;;4926773;29;20028;-71
2023/05/13 14:28:28;;;;;;;3.20;2.10;;;18.80;92.60;;;;;;4926314;29;20054;-72
2023/05/13 14:30:54;;;;;;;4.78;2.30;;;18.80;92.90;;;;;;4909979;29;20040;-72
2023/05/13 14:33:20;;;;;;;5.22;2.28;;;18.80;92.90;;;;;;4926819;29;20095;-72
2023/05/13 14:35:45;;;;;;;3.08;2.25;;;18.80;93.00;;;;;;4908992;29;20177;-72
2023/05/13 14:38:11;;;;;;;4.38;2.45;;;19.10;92.60;;;;;;4926960;29;20111;-72
2023/05/13 14:40:37;;;;;;;3.63;2.30;;;19.40;92.20;;;;;;4926484;29;20060;-72
2023/05/13 14:43:03;;;;;;;3.10;2.40;;;19.80;91.70;;;;;;4909843;29;20307;-72
2023/05/13 14:45:29;;;;;;;2.85;2.22;;;19.90;91.90;;;;;;4925973;29;20044;-72
2023/05/13 14:47:55;;;;;;;5.20;2.75;;;20.00;91.30;;;;;;4909564;29;20040;-71
2023/05/13 14:50:21;;;;;;;3.22;2.20;;;20.00;91.30;;;;;;4926208;29;20153;-72
2023/05/13 14:52:46;;;;;;;3.83;2.30;;;20.10;91.10;;;;;;4929465;29;20365;-74
2023/05/13 14:55:12;;;;;;;4.40;2.30;;;19.80;91.40;;;;;;4929509;29;20289;-73
2023/05/13 14:57:38;;;;;;;3.58;2.28;;;19.60;91.30;;;;;;4930028;29;20031;-73
2023/05/13 15:00:04;;;;;;;5.10;2.38;;;19.50;91.80;;;;;;4928395;29;20222;-73
2023/05/13 15:02:30;;;;;;;3.35;2.42;;;19.20;92.10;;;;;;4925186;29;20301;-73
2023/05/13 15:04:56;;;;;;;3.65;2.70;;;18.80;92.60;;;;;;4922889;29;20052;-73
2023/05/13 15:07:21;;;;;;;3.88;2.42;;;18.90;92.70;;;;;;4920320;29;20036;-73
2023/05/13 15:09:47;;;;;;;4.00;2.47;;;18.90;92.80;;;;;;4925358;29;20104;-72
2023/05/13 15:12:13;;;;;;;3.53;2.35;;;19.00;92.60;;;;;;4924086;29;20218;-71
2023/05/13 15:14:38;;;;;;;3.88;2.53;;;19.10;92.50;;;;;;4912493;29;20095;-72
2023/05/13 15:17:09;;;;;;;4.68;2.38;;;19.30;92.30;;;;;;4930101;29;20036;-73
2023/05/13 15:19:35;;;;;;;4.55;2.70;;;19.70;92.40;;;;;;4929139;29;20344;-72
2023/05/13 15:22:00;;;;;;;4.55;2.00;;;20.10;91.80;;;;;;4913314;29;20036;-73
2023/05/13 15:24:26;;;;;;;3.10;2.20;;;20.30;91.20;;;;;;4912641;29;20040;-71
2023/05/13 15:26:52;;;;;;;4.10;2.50;;;20.40;91.10;;;;;;4929810;29;20321;-69
2023/05/13 15:29:17;;;;;;;3.50;2.60;;;20.20;90.90;;;;;;4929589;29;20047;-69
2023/05/13 15:31:43;;;;;;;4.70;2.50;;;20.00;91.00;;;;;;4929200;29;20032;-70
2023/05/13 15:34:09;;;;;;;3.38;2.38;;;19.70;91.30;;;;;;4929630;29;20091;-68
2023/05/13 15:36:34;;;;;;;4.57;2.42;;;20.40;90.70;;;;;;4928787;29;20047;-68
2023/05/13 15:39:00;;;;;;;3.35;2.33;;;21.00;90.00;;;;;;4929752;29;20095;-68
2023/05/13 15:41:26;;;;;;;3.83;2.20;;;20.90;89.40;;;;;;4929284;29;20071;-68
2023/05/13 15:43:54;;;;;;;3.80;2.65;;;20.40;90.50;;;;;;4929573;29;20040;-68
2023/05/13 15:46:22;;;;;;;4.68;2.55;;;19.80;90.80;;;;;;4924147;29;20032;-69
2023/05/13 15:48:48;;;;;;;4.87;2.63;;;19.40;91.50;;;;;;4921108;29;20027;-69
2023/05/13 15:51:14;;;;;;;4.05;2.50;;;19.00;92.00;;;;;;4920611;29;20437;-70
2023/05/13 15:53:40;;;;;;;3.65;2.25;;;18.80;92.20;;;;;;4923456;29;20029;-69
2023/05/13 15:56:05;;;;;;;3.38;2.38;;;18.50;93.30;;;;;;4914147;29;20036;-70
2023/05/13 15:58:31;;;;;;;4.38;2.97;;;18.50;92.90;;;;;;4927209;29;20062;-70
2023/05/13 16:00:57;;;;;;;4.00;2.30;;;18.50;93.10;;;;;;4926205;29;20032;-70
2023/05/13 16:03:23;;;;;;;4.95;2.50;;;18.50;93.50;;;;;;4927666;29;20282;-70
2023/05/13 16:05:50;;;;;;;4.82;3.05;;;18.50;93.50;;;;;;4928449;29;20032;-70
2023/05/13 16:08:16;;;;;;;4.10;2.80;;;18.30;93.80;;;;;;4928991;29;20044;-70
2023/05/13 16:10:41;;;;;;;5.18;2.70;;;18.30;93.80;;;;;;4922465;29;20024;-70
2023/05/13 16:13:07;;;;;;;3.88;2.67;;;18.20;93.80;;;;;;4919231;29;20036;-70
2023/05/13 16:15:33;;;;;;;4.80;2.92;;;17.90;93.80;;;;;;4923153;29;20245;-70
2023/05/13 16:17:59;;;;;;;4.13;2.85;;;17.70;93.90;;;;;;4922285;29;20199;-71
2023/05/13 16:20:24;;;;;;;4.95;2.70;;;17.40;94.40;;;;;;4926532;29;20038;-71
2023/05/13 16:22:50;;;;;;;4.63;2.90;;;17.30;94.60;;;;;;4928413;29;20083;-72
2023/05/13 16:25:16;;;;;;;3.78;2.58;;;17.10;94.90;;;;;;4928839;29;20020;-71
2023/05/13 16:27:42;;;;;;;5.22;2.67;;;17.00;95.30;;;;;;4927745;29;20381;-71
2023/05/13 16:30:09;;;;;;;5.13;2.72;;;16.90;95.40;;;;;;4928588;29;20349;-70
2023/05/13 16:32:35;;;;;;;4.40;2.22;;;16.90;95.60;;;;;;4927844;29;20051;-71
2023/05/13 16:35:02;;;;;;;3.70;2.60;;;16.80;95.70;;;;;;4928812;29;20063;-71
2023/05/13 16:37:29;;;;;;;5.10;2.53;;;16.80;96.00;;;;;;4928214;29;20322;-71
2023/05/13 16:39:55;;;;;;;4.22;2.75;;;16.90;96.20;;;;;;4928592;29;20100;-71
2023/05/13 16:42:21;;;;;;;5.32;3.40;;;16.90;96.30;;;;;;4928637;29;20032;-71
2023/05/13 16:44:46;;;;;;;4.60;3.30;;;17.00;96.60;;;;;;4928227;29;20078;-70
2023/05/13 16:47:13;;;;;;;6.68;4.90;;;17.00;96.70;;;;;;4927967;29;20222;-69
2023/05/13 16:49:39;;;;;;;5.88;3.42;;;16.90;96.20;;;;;;4927869;29;20083;-70
2023/05/13 16:52:05;;;;;;;4.47;2.70;;;16.80;96.40;;;;;;4911567;29;20050;-71
2023/05/13 16:54:31;;;;;;;4.57;3.30;;;16.80;96.40;;;;;;4927359;29;20210;-71
2023/05/13 16:56:58;;;;;;;6.55;4.63;;;16.80;96.50;;;;;;4928184;29;20036;-71
2023/05/13 16:59:25;;;;;;;5.07;3.92;;;16.80;96.20;;;;;;4928109;29;20035;-71
2023/05/13 17:01:51;;;;;;;4.47;3.47;;;16.80;96.20;;;;;;4927481;29;20539;-70
2023/05/13 17:04:17;;;;;;;4.93;3.05;;;16.70;96.30;;;;;;4927855;29;20034;-70
2023/05/13 17:06:43;;;;;;;4.22;2.42;;;16.70;96.30;;;;;;4927189;29;20050;-71
2023/05/13 17:09:09;;;;;;;3.75;2.70;;;16.70;96.60;;;;;;4927495;29;20087;-71
2023/05/13 17:11:35;;;;;;;3.83;2.60;;;16.80;96.40;;;;;;4927738;29;20226;-70
2023/05/13 17:14:03;;;;;;;6.38;4.15;;;16.80;96.50;;;;;;4927793;29;20016;-70
2023/05/13 17:16:29;;;;;;;4.95;3.30;;;16.80;96.60;;;;;;4928022;29;20028;-70
2023/05/13 17:18:54;;;;;;;4.93;3.22;;;16.70;96.50;;;;;;4927424;29;20059;-71
2023/05/13 17:21:20;;;;;;;4.53;3.20;;;16.60;96.80;;;;;;4927979;29;20306;-70
2023/05/13 17:23:46;;;;;;;3.95;2.75;;;16.60;97.00;;;;;;4910442;29;20036;-70
2023/05/13 17:26:12;;;;;;;4.68;2.85;;;16.60;96.90;;;;;;4927672;29;20130;-70
2023/05/13 17:28:39;;;;;;;4.75;2.72;;;16.50;97.00;;;;;;4927041;29;20214;-71
2023/05/13 17:31:06;;;;;;;4.65;2.85;;;16.40;97.20;;;;;;4927316;29;20032;-70
2023/05/13 17:33:32;;;;;;;4.05;3.10;;;16.30;97.40;;;;;;4927306;29;20032;-70
2023/05/13 17:35:58;;;;;;;4.70;2.85;;;16.20;97.50;;;;;;4926972;29;20051;-71
2023/05/13 17:38:24;;;;;;;4.03;3.00;;;16.30;97.90;;;;;;4927154;29;20029;-71
2023/05/13 17:40:51;;;;;;;3.53;2.78;;;16.30;97.70;;;;;;4926680;29;20020;-70
2023/05/13 17:43:17;;;;;;;5.07;2.72;;;16.30;97.60;;;;;;4927497;29;20042;-71
2023/05/13 17:45:44;;;;;;;5.10;2.90;;;16.30;97.70;;;;;;4926762;29;20024;-71
2023/05/13 17:48:10;;;;;;;5.30;3.15;;;16.30;97.80;;;;;;4927057;29;20048;-71
2023/05/13 17:50:36;;;;;;;3.80;2.80;;;16.20;97.70;;;;;;4926477;29;20051;-71